Latest Weather Observations for Cerberus

IDV60801

Issued at 4:02 pm EST Friday 1 July 2016 (issued every 30 minutes, with the page automatically refreshed every 10 minutes)

About weather observations | Map of weather stations | Latest weather observations for VIC | Other Formats
Station Details ID: 086361 Name: CERBERUS Lat: -38.36 Lon: 145.18 Height: 12.69 m
Data from the previous 72 hours. | See also: Recent months at Cerberus
Date/Time
EST
Temp
°C
App
Temp
°C
Dew
Point
°C
Rel
Hum
%
Delta-T
°C
Wind Press
QNH
hPa
Press
MSL
hPa
Rain since
9am
mm
Dir  Spd
km/h
Gust
km/h
Spd
kts
Gust
kts
01/04:00pm 11.4 8.4 7.5 77 1.9 NW 13 24 7 13 1020.4 1020.4 0.2
01/03:30pm 12.0 8.1 7.3 73 2.3 NW 17 24 9 13 1019.9 1019.9 0.2
01/03:00pm 12.0 7.5 6.3 68 2.7 WNW 19 30 10 16 1019.9 1019.9 0.2
01/02:30pm 12.7 8.7 6.5 66 3.0 WNW 17 28 9 15 1019.7 1019.7 0.2
01/02:00pm 12.7 11.2 6.7 67 2.9 WNW 4 15 2 8 1019.7 1019.7 0.2
01/01:30pm 12.6 8.5 6.4 66 2.9 W 17 28 9 15 1019.5 1019.5 0.2
01/01:00pm 12.8 10.5 5.7 62 3.3 W 7 20 4 11 1019.3 1019.3 0.2
01/12:30pm 12.2 8.4 6.0 66 2.9 W 15 26 8 14 1019.6 1019.6 0.2
01/12:00pm 12.5 7.9 5.7 63 3.2 WSW 19 30 10 16 1019.5 1019.5 0.2
01/11:30am 12.8 9.1 6.2 64 3.1 WSW 15 22 8 12 1019.5 1019.5 0.2
01/11:00am 12.0 8.6 7.5 74 2.2 WSW 15 24 8 13 1019.5 1019.5 0.2
01/10:30am 12.1 8.8 8.2 77 1.9 W 15 28 8 15 1019.3 1019.3 0.0
01/10:00am 11.0 8.2 8.4 84 1.3 WSW 13 24 7 13 1018.8 1018.8 0.0
01/09:30am 10.8 8.6 9.2 90 0.8 SW 11 24 6 13 1018.6 1018.6 0.0
01/09:00am 11.4 8.0 9.0 85 1.2 SW 17 30 9 16 1018.1 1018.1 8.2
01/08:30am 10.5 7.8 8.8 89 0.8 WSW 13 26 7 14 1017.5 1017.5 8.2
01/08:00am 10.4 8.8 8.7 89 0.8 WSW 7 19 4 10 1016.8 1016.8 8.0
01/07:30am 10.5 7.8 7.4 81 1.5 W 11 32 6 17 1016.4 1016.4 6.8
01/07:00am 9.7 8.5 6.6 81 1.4 W 2 13 1 7 1015.7 1015.7 6.4
01/06:30am 10.0 9.4 7.3 83 1.3 CALM 0 13 0 7 1015.0 1015.0 6.4
01/06:00am 10.3 8.2 8.4 88 0.9 WSW 9 20 5 11 1014.5 1014.5 6.4
01/05:30am 9.2 7.4 8.0 92 0.6 WNW 7 19 4 10 1014.0 1014.0 6.4
01/05:00am 8.2 7.5 7.0 92 0.6 CALM 0 0 0 0 1013.4 1013.5 6.0
01/04:30am 8.0 7.3 6.8 92 0.6 CALM 0 0 0 0 1012.8 1012.9 6.0
01/04:00am 7.7 6.9 6.5 92 0.5 CALM 0 0 0 0 1012.6 1012.7 6.0
01/03:30am 7.5 6.7 6.3 92 0.5 CALM 0 0 0 0 1012.2 1012.3 5.8
01/03:00am 7.4 6.5 6.2 92 0.5 CALM 0 0 0 0 1011.8 1011.9 5.4
01/02:30am 7.0 6.1 5.9 93 0.5 CALM 0 13 0 7 1011.4 1011.5 5.4
01/02:00am 6.4 5.3 5.2 92 0.5 CALM 0 0 0 0 1011.1 1011.2 5.4
01/01:30am 6.7 5.6 5.3 91 0.6 CALM 0 0 0 0 1010.5 1010.6 5.4
01/01:00am 7.1 6.1 5.7 91 0.6 CALM 0 0 0 0 1010.1 1010.2 5.4
01/12:30am 7.2 6.2 5.8 91 0.6 CALM 0 0 0 0 1009.9 1010.0 5.4
01/12:00am 7.2 6.2 5.7 90 0.7 CALM 0 0 0 0 1009.7 1009.8 5.4
 
Date/Time
EST
Temp
°C
App
Temp
°C
Dew
Point
°C
Rel
Hum
%
Delta-T
°C
Wind Press
QNH
hPa
Press
MSL
hPa
Rain since
9am
mm
Dir  Spd
km/h
Gust
km/h
Spd
kts
Gust
kts
30/11:30pm 7.3 6.3 5.4 88 0.8 CALM 0 0 0 0 1009.5 1009.6 5.2
30/11:00pm 7.9 4.7 5.0 82 1.3 NW 11 22 6 12 1009.2 1009.3 5.2
30/10:30pm 9.2 4.0 3.8 69 2.4 NW 20 30 11 16 1008.7 1008.8 5.2
30/10:00pm 9.0 5.7 4.6 74 2.0 NW 11 30 6 16 1008.2 1008.3 5.2
30/09:30pm 8.0 6.8 4.8 80 1.4 CALM 0 13 0 7 1007.7 1007.8 5.2
30/09:00pm 8.0 6.6 5.3 83 1.2 N 2 15 1 8 1007.5 1007.6 5.2
30/08:30pm 7.5 5.3 5.5 87 0.9 NNW 6 17 3 9 1007.5 1007.6 5.2
30/08:00pm 6.9 5.8 5.1 88 0.8 CALM 0 0 0 0 1007.5 1007.6 5.2
30/07:30pm 7.5 5.7 5.5 87 0.9 N 4 19 2 10 1007.2 1007.3 5.2
30/07:00pm 7.9 5.7 6.0 88 0.9 N 7 22 4 12 1007.0 1007.1 5.2
30/06:30pm 7.7 6.8 6.0 89 0.8 CALM 0 11 0 6 1006.9 1007.0 5.2
30/06:00pm 7.9 7.0 6.0 88 0.9 CALM 0 0 0 0 1006.5 1006.6 5.2
30/05:30pm 8.2 6.2 6.2 87 0.9 NNW 6 17 3 9 1006.1 1006.2 5.2
30/05:00pm 8.9 5.0 7.0 88 0.9 NNW 17 32 9 17 1006.2 1006.3 4.8
30/04:30pm 9.3 4.9 6.7 84 1.2 NNW 19 35 10 19 1005.9 1006.0 1.8
30/04:00pm 10.8 5.9 5.3 69 2.5 N 20 39 11 21 1005.1 1005.1 0.2
30/03:30pm 10.9 5.6 5.2 68 2.6 N 22 39 12 21 1004.9 1004.9 0.2
30/03:00pm 11.4 5.4 5.3 66 2.8 NNW 26 46 14 25 1005.0 1005.0 0.2
30/02:31pm 11.8 5.5 5.7 66 2.8 N 28 54 15 29 1004.9 1004.9 0.2
30/02:30pm 11.7 5.8 5.6 66 2.8 N 26 54 14 29 1004.9 1004.9 0.2
30/02:00pm 11.6 4.9 5.7 67 2.8 N 30 54 16 29 1005.5 1005.5 0.2
30/01:51pm 11.6 5.3 5.5 66 2.8 NNW 28 54 15 29 1005.5 1005.5 0.2
30/01:30pm 11.0 6.3 6.0 71 2.3 N 20 43 11 23 1005.8 1005.9 0.0
30/01:00pm 11.2 5.6 5.3 67 2.7 N 24 43 13 23 1006.2 1006.3 0.0
30/12:43pm 11.8 5.4 5.0 63 3.1 NNW 28 48 15 26 1006.5 1006.6 0.0
30/12:30pm 11.8 5.7 5.0 63 3.1 N 26 48 14 26 1006.5 1006.6 0.0
30/12:02pm 11.6 5.2 5.0 64 3.0 N 28 52 15 28 1007.4 1007.5 0.0
30/12:00pm 11.6 5.5 4.8 63 3.1 N 26 52 14 28 1007.4 1007.5 0.0
30/11:35am 11.4 4.9 4.8 64 3.0 N 28 56 15 30 1007.7 1007.8 0.0
30/11:30am 11.3 5.6 4.7 64 3.0 N 24 43 13 23 1008.1 1008.2 0.0
30/11:02am 11.4 4.9 4.6 63 3.1 NNW 28 54 15 29 1009.0 1009.1 0.0
30/11:00am 11.4 5.3 4.8 64 3.0 NNW 26 43 14 23 1009.3 1009.4 0.0
30/10:33am 11.3 4.8 4.5 63 3.1 N 28 50 15 27 1009.3 1009.4 0.0
30/10:30am 11.3 5.2 4.7 64 3.0 N 26 50 14 27 1009.3 1009.4 0.0
30/10:11am 11.1 4.6 4.8 65 2.9 N 28 48 15 26 1009.4 1009.5 0.0
30/10:00am 10.5 5.3 5.3 70 2.4 N 22 41 12 22 1009.6 1009.7 0.0
30/09:30am 10.6 4.9 4.9 68 2.6 N 24 48 13 26 1009.9 1010.0 0.0
30/09:00am 11.2 5.8 4.4 63 3.1 N 22 48 12 26 1009.9 1010.0 0.0
30/08:30am 11.0 6.0 4.7 65 2.8 N 20 37 11 20 1010.3 1010.4 0.0
30/08:00am 10.9 5.6 4.8 66 2.8 N 22 44 12 24 1010.9 1011.0 0.0
30/07:30am 11.5 6.3 3.5 58 3.5 N 20 43 11 23 1011.0 1011.1 0.0
30/07:00am 11.3 7.1 3.6 59 3.4 N 15 35 8 19 1010.9 1011.0 0.0
30/06:30am 11.3 7.5 3.8 60 3.3 N 13 33 7 18 1011.2 1011.3 0.0
30/06:00am 11.3 5.7 3.6 59 3.4 N 22 46 12 25 1011.0 1011.1 0.0
30/05:30am 11.2 6.6 3.7 60 3.3 N 17 33 9 18 1011.8 1011.9 0.0
30/05:00am 11.2 6.2 3.5 59 3.4 N 19 33 10 18 1012.4 1012.5 0.0
30/04:30am 11.0 6.7 3.5 60 3.3 N 15 28 8 15 1013.0 1013.1 0.0
30/04:00am 10.6 6.0 3.6 62 3.1 N 17 35 9 19 1013.4 1013.5 0.0
30/03:30am 10.7 5.8 4.0 63 3.0 N 19 43 10 23 1014.2 1014.2 0.0
30/03:00am 11.2 5.4 4.2 62 3.1 N 24 39 13 21 1015.1 1015.1 0.0
30/02:30am 11.2 5.9 5.1 66 2.8 N 22 39 12 21 1015.6 1015.6 0.0
30/02:00am 11.4 6.5 5.1 65 2.9 NNW 20 35 11 19 1016.2 1016.2 0.0
30/01:30am 11.3 7.4 5.2 66 2.8 N 15 32 8 17 1016.6 1016.6 0.0
30/01:00am 11.6 7.0 5.5 66 2.8 N 19 35 10 19 1017.0 1017.0 0.0
30/12:30am 11.6 7.4 5.7 67 2.7 NNW 17 32 9 17 1017.7 1017.7 0.0
30/12:00am 11.6 7.0 5.7 67 2.7 NNW 19 35 10 19 1018.2 1018.2 0.0
 
Date/Time
EST
Temp
°C
App
Temp
°C
Dew
Point
°C
Rel
Hum
%
Delta-T
°C
Wind Press
QNH
hPa
Press
MSL
hPa
Rain since
9am
mm
Dir  Spd
km/h
Gust
km/h
Spd
kts
Gust
kts
29/11:30pm 11.6 7.4 5.7 67 2.7 NNW 17 35 9 19 1018.6 1018.6 0.0
29/11:00pm 11.7 7.5 5.8 67 2.7 NNW 17 32 9 17 1018.8 1018.8 0.0
29/10:30pm 10.4 9.4 5.8 73 2.1 CALM 0 11 0 6 1018.6 1018.6 0.0
29/10:00pm 10.8 9.5 5.8 71 2.3 N 2 17 1 9 1018.7 1018.7 0.0
29/09:30pm 10.6 8.5 5.8 72 2.2 N 6 20 3 11 1018.9 1018.9 0.0
29/09:00pm 10.6 8.5 5.6 71 2.3 NNE 6 17 3 9 1019.0 1019.0 0.0
29/08:30pm 10.4 8.1 5.6 72 2.2 N 7 19 4 10 1019.2 1019.2 0.0
29/08:00pm 10.4 8.6 5.4 71 2.3 N 4 15 2 8 1019.7 1019.7 0.0
29/07:30pm 10.9 8.8 5.7 70 2.4 N 6 19 3 10 1020.1 1020.1 0.0
29/07:00pm 11.4 9.2 5.3 66 2.8 N 6 17 3 9 1020.3 1020.3 0.0
29/06:30pm 12.2 9.3 4.9 61 3.3 N 9 22 5 12 1020.5 1020.5 0.0
29/06:00pm 12.5 9.6 4.7 59 3.6 N 9 20 5 11 1020.6 1020.6 0.0
29/05:30pm 13.1 9.0 4.5 56 3.9 NNW 15 30 8 16 1020.9 1020.9 0.0
29/05:00pm 13.2 9.7 5.4 59 3.6 N 13 26 7 14 1021.1 1021.1 0.0
29/04:30pm 13.7 10.0 6.1 60 3.6 N 15 22 8 12 1021.6 1021.6 0.0
29/04:00pm 14.2 11.5 5.8 57 4.0 N 9 28 5 15 1021.7 1021.7 0.0
29/03:30pm 14.2 11.4 7.0 62 3.5 N 11 24 6 13 1022.0 1022.0 0.0
29/03:00pm 14.7 11.0 6.3 57 4.0 N 15 26 8 14 1022.0 1022.0 0.0
29/02:30pm 14.8 12.0 6.9 59 3.9 N 11 24 6 13 1022.5 1022.5 0.0
29/02:00pm 14.8 12.4 7.1 60 3.8 NNW 9 20 5 11 1022.9 1022.9 0.0
29/01:30pm 15.2 12.9 7.3 59 3.9 NNW 9 19 5 10 1023.4 1023.4 0.0
29/01:00pm 14.4 11.5 6.7 60 3.7 NNW 11 22 6 12 1023.9 1023.9 0.0
29/12:30pm 14.3 10.7 6.9 61 3.6 NNW 15 26 8 14 1024.5 1024.5 0.0
29/12:00pm 14.6 11.1 7.2 61 3.6 NNW 15 24 8 13 1024.9 1024.9 0.0
29/11:30am 14.6 10.4 7.4 62 3.5 NW 19 30 10 16 1025.5 1025.5 0.0
29/11:00am 14.3 11.8 8.3 67 3.0 NW 11 24 6 13 1025.9 1025.9 0.0
29/10:30am 13.2 10.3 8.1 71 2.5 NW 13 24 7 13 1026.1 1026.1 0.0
29/10:00am 13.0 9.7 8.1 72 2.4 NNW 15 28 8 15 1026.1 1026.1 0.0
29/09:30am 12.3 9.3 7.8 74 2.2 NNW 13 26 7 14 1026.0 1026.0 0.0
29/09:00am 11.7 9.1 7.6 76 2.0 NNW 11 22 6 12 1025.8 1025.8 0.2
29/08:30am 10.9 10.4 8.0 82 1.4 CALM 0 13 0 7 1025.7 1025.7 0.2
29/08:00am 10.2 9.7 7.8 85 1.1 CALM 0 13 0 7 1025.7 1025.7 0.2
29/07:30am 10.0 9.1 7.9 87 1.0 NNW 2 13 1 7 1025.5 1025.5 0.2
29/07:00am 9.2 8.6 7.3 88 0.9 CALM 0 0 0 0 1025.4 1025.4 0.2
29/06:30am 9.3 8.7 7.3 87 0.9 CALM 0 0 0 0 1025.4 1025.4 0.2
29/06:00am 9.8 8.9 7.7 87 1.0 NNW 2 13 1 7 1025.1 1025.1 0.2
29/05:30am 9.8 9.3 7.9 88 0.9 CALM 0 11 0 6 1025.0 1025.0 0.2
29/05:00am 9.1 8.5 7.2 88 0.9 CALM 0 0 0 0 1024.9 1024.9 0.2
29/04:30am 9.1 8.4 7.1 87 0.9 CALM 0 0 0 0 1024.9 1024.9 0.2
29/04:00am 9.7 9.1 7.5 86 1.0 CALM 0 0 0 0 1024.8 1024.8 0.2
29/03:30am 10.3 9.8 7.7 84 1.2 CALM 0 11 0 6 1025.0 1025.0 0.2
29/03:00am 10.8 9.6 8.0 83 1.4 NNW 4 15 2 8 1025.0 1025.0 0.2
29/02:30am 10.6 10.1 7.8 83 1.4 CALM 0 11 0 6 1025.0 1025.0 0.2
29/02:00am 10.8 9.2 8.0 83 1.4 NNW 6 19 3 10 1025.0 1025.0 0.2
29/01:30am 10.8 8.3 8.0 83 1.4 NNW 11 20 6 11 1025.0 1025.0 0.2
29/01:00am 10.9 10.1 8.3 84 1.3 NNW 2 13 1 7 1025.2 1025.2 0.2
29/12:30am 10.8 8.7 8.2 84 1.3 NNW 9 20 5 11 1025.2 1025.2 0.2
29/12:00am 11.2 8.7 8.2 82 1.5 NNW 11 22 6 12 1025.2 1025.2 0.2
 
Date/Time
EST
Temp
°C
App
Temp
°C
Dew
Point
°C
Rel
Hum
%
Delta-T
°C
Wind Press
QNH
hPa
Press
MSL
hPa
Rain since
9am
mm
Dir  Spd
km/h
Gust
km/h
Spd
kts
Gust
kts
28/11:30pm 11.2 8.3 8.2 82 1.5 NNW 13 24 7 13 1025.3 1025.3 0.2
28/11:00pm 10.9 8.7 8.0 82 1.4 NNW 9 20 5 11 1025.3 1025.3 0.2
28/10:30pm 10.9 8.4 8.1 83 1.4 NNW 11 20 6 11 1025.3 1025.3 0.0
28/10:00pm 11.4 8.8 7.9 79 1.7 NNW 11 22 6 12 1025.3 1025.3 0.0
28/09:30pm 11.6 9.9 7.7 77 1.9 NNW 6 15 3 8 1025.2 1025.2 0.0
28/09:00pm 11.7 8.7 7.6 76 2.0 NNW 13 22 7 12 1025.2 1025.2 0.0
28/08:30pm 11.9 9.3 7.8 76 2.0 NW 11 26 6 14 1024.9 1024.9 0.0
28/08:00pm 11.9 9.8 8.2 78 1.8 NW 9 19 5 10 1024.8 1024.8 0.0
28/07:30pm 12.4 11.0 8.7 78 1.8 NNW 6 15 3 8 1024.7 1024.7 0.0
28/07:00pm 12.9 11.5 9.0 77 2.0 NNW 6 20 3 11 1024.4 1024.4 0.0
28/06:30pm 12.8 11.4 8.9 77 2.0 NNW 6 17 3 9 1024.2 1024.2 0.0
28/06:00pm 12.8 10.8 8.7 76 2.0 NW 9 17 5 9 1024.0 1024.0 0.0
28/05:30pm 12.2 11.5 8.7 79 1.7 NW 2 13 1 7 1023.6 1023.6 0.0
28/05:00pm 12.9 11.8 8.6 75 2.1 NW 4 17 2 9 1023.4 1023.4 0.0
28/04:30pm 14.1 13.1 8.7 70 2.7 NW 4 17 2 9 1023.1 1023.1 0.0

Other Formats:

Comma delimited format used in spreadsheet applications
http://www.bom.gov.au/fwo/IDV60801/IDV60801.94898.axf

JavaScript Object Notation format (JSON) in row-major order
http://www.bom.gov.au/fwo/IDV60801/IDV60801.94898.json